LSZALSME

Guest
Details From LSZA - Lugano
To LSME - Emmen
Flight Number -
Tags generated
Created
Modified
Stats Distance 70 nm / 130 km
Max Altitude 6,700 ft / 2,042 m
Waypoints 3
Social Downloads 0
Likes 0
Share VATSIM

Download

Looking for another format? Having issues loading an existing format? Contact us
Advertisement - Login to hide

Notes

Basic altitude profile: - Ascent Rate: 700ft/min - Ascent Speed: 90kts - Cruise Altitude: 9200ft - Cruise Speed: 120kts - Descent Rate: 700ft/min - Descent Speed: 85kts Options: - Use NATs: yes - Use PACOTS: yes - Use low airways: yes - Use high airways: yes

Route

LSZA SOSON LSME

ID Type Via Altitude Latitude Longitude Leg Dist Tot Dist Heading (true) Name
O LSZA APT - 0 ft / 0 m 46.00428˚ 8.91058˚ - 0 nm - Lugano
SOSON FIX - 6,700 ft / 2,042 m 46.60667˚ 8.59417˚ 38 nm 38 nm 340° / 340° -
O LSME APT - 0 ft / 0 m 47.09237˚ 8.30512˚ 31 nm 69 nm 338° / 338° Emmen

Altitude Profile

Advertisement - Login to hide

LSZA

Details ICAO LSZA (LUG)
Name Lugano
Region Switzerland
Timezone Europe/Zurich (UTC+1.0)
Stats Elevation 915 ft / 279 m (AMSL)
Location 46.004275° 8.910579°
Runways 1
Magnetic Variation 2.423° E

METAR

LSZA 141020Z 15003KT 100V210 9999 FEW052 06/M02 Q1008 NOSIG

Decode

TAF

Not found

Departure Runways

ID Width Length Bearing (true) Bearing (mag) Surface Threshold Offset Overrun Length
01 98 ft / 30 m 4,430 ft / 1,350 m 18.79° 16.37° Asphalt 361 ft / 110 m 0 ft / 0 m
19 98 ft / 30 m 4,430 ft / 1,350 m 198.79° 196.37° Asphalt 673 ft / 205 m 0 ft / 0 m

LSME

Details ICAO LSME
Name Emmen
Region Switzerland
Timezone Europe/Zurich (UTC+1.0)
Stats Elevation 1,400 ft / 427 m (AMSL)
Location 47.092369° 8.305118°
Runways 1
Magnetic Variation 2.284° E

METAR

LSME 140950Z 35004KT 7000 RA FEW010 BKN024 OVC031 03/02 Q1006 RERA RMK WHT

Decode

TAF

TAF LSME 140925Z 1410/1516 25010KT 9999 FEW015 BKN050 TEMPO 1410/1516 25015G25KT TEMPO 1410/1415 4000 SHRA BKN012 TEMPO 1415/1500 4000 RA BKN012 PROB40 TEMPO 1420/1502 0800 SN VV003 TEMPO 1422/1508 1200 SHSNRA SCT008TCU PROB40 TEMPO 1422/1502 27020G45KT 2500 TSGS SCT008CB

Decode

Destination Runways

ID Width Length Bearing (true) Bearing (mag) Surface Threshold Offset Overrun Length
04 130 ft / 40 m 8,202 ft / 2,500 m 37.49° 35.21° Asphalt 363 ft / 111 m 810 ft / 247 m
22 130 ft / 40 m 8,202 ft / 2,500 m 217.51° 215.23° Asphalt 596 ft / 182 m 747 ft / 228 m

Approach Navaids

Runway Type Ident Frequency Range Bearing (true) Bearing (mag) Slope Elevation
22 Localiser IEM 110.35 MHz 18 nm / 33 km 217.57° 215.29° - 1,400 ft / 427 m (AMSL)
22 Glidescope IEM 110.35 MHz 10 nm / 19 km 217.50° 215.22° 4.00° 1,406 ft / 429 m (AMSL)
22 DME IEM 110.35 MHz 18 nm / 33 km - - - 1,406 ft / 429 m (AMSL)

Popular Alternatives